sensor_id;sensor_type;location;lat;lon;timestamp;pressure;altitude;pressure_sealevel;temperature;humidity
56992;BME280;42885;49.754;18.636;2023-07-16T00:00:24;97967.47;;;27.99;68.22
56992;BME280;42885;49.754;18.636;2023-07-16T00:02:57;97974.89;;;28.11;67.76
56992;BME280;42885;49.754;18.636;2023-07-16T00:05:27;97977.20;;;28.62;64.02
56992;BME280;42885;49.754;18.636;2023-07-16T00:07:58;97974.73;;;27.99;68.52
56992;BME280;42885;49.754;18.636;2023-07-16T00:10:29;97970.09;;;27.90;69.03
56992;BME280;42885;49.754;18.636;2023-07-16T00:13:01;97964.38;;;27.96;68.88
56992;BME280;42885;49.754;18.636;2023-07-16T00:15:33;97973.93;;;27.85;69.53
56992;BME280;42885;49.754;18.636;2023-07-16T00:18:04;97965.22;;;27.96;69.11
56992;BME280;42885;49.754;18.636;2023-07-16T00:20:36;97962.62;;;27.99;69.15
56992;BME280;42885;49.754;18.636;2023-07-16T00:23:07;97962.49;;;28.03;68.78
56992;BME280;42885;49.754;18.636;2023-07-16T00:25:38;97963.03;;;28.02;68.76
56992;BME280;42885;49.754;18.636;2023-07-16T00:28:08;97958.86;;;28.07;68.26
56992;BME280;42885;49.754;18.636;2023-07-16T00:30:41;97959.95;;;27.92;69.29
56992;BME280;42885;49.754;18.636;2023-07-16T00:33:12;97957.65;;;28.02;68.50
56992;BME280;42885;49.754;18.636;2023-07-16T00:35:50;97954.27;;;27.91;69.38
56992;BME280;42885;49.754;18.636;2023-07-16T00:38:21;97960.14;;;27.97;69.31
56992;BME280;42885;49.754;18.636;2023-07-16T00:40:52;97964.22;;;27.91;69.42
56992;BME280;42885;49.754;18.636;2023-07-16T00:43:24;97946.94;;;27.89;69.48
56992;BME280;42885;49.754;18.636;2023-07-16T00:45:55;97953.42;;;27.97;69.27
56992;BME280;42885;49.754;18.636;2023-07-16T00:48:27;97952.22;;;27.86;70.09
56992;BME280;42885;49.754;18.636;2023-07-16T00:51:01;97940.16;;;27.80;70.46
56992;BME280;42885;49.754;18.636;2023-07-16T00:53:33;97939.11;;;27.81;70.42
56992;BME280;42885;49.754;18.636;2023-07-16T00:56:04;97934.28;;;27.73;70.72
56992;BME280;42885;49.754;18.636;2023-07-16T00:58:36;97927.22;;;27.79;70.89
56992;BME280;42885;49.754;18.636;2023-07-16T01:01:07;97933.09;;;27.85;69.99
56992;BME280;42885;49.754;18.636;2023-07-16T01:03:38;97929.95;;;27.72;70.79
56992;BME280;42885;49.754;18.636;2023-07-16T01:06:35;97930.98;;;27.71;71.58
56992;BME280;42885;49.754;18.636;2023-07-16T01:09:19;97934.41;;;27.69;71.62
56992;BME280;42885;49.754;18.636;2023-07-16T01:11:51;97930.15;;;27.71;71.05
56992;BME280;42885;49.754;18.636;2023-07-16T01:14:23;97918.59;;;27.64;71.77
56992;BME280;42885;49.754;18.636;2023-07-16T01:16:54;97923.16;;;28.09;68.45
56992;BME280;42885;49.754;18.636;2023-07-16T01:19:27;97920.27;;;27.65;71.07
56992;BME280;42885;49.754;18.636;2023-07-16T01:25:09;97917.24;;;27.70;71.36
56992;BME280;42885;49.754;18.636;2023-07-16T01:27:59;97923.42;;;27.78;70.23
56992;BME280;42885;49.754;18.636;2023-07-16T01:30:23;97913.21;;;27.70;70.14
56992;BME280;42885;49.754;18.636;2023-07-16T01:32:57;97927.92;;;27.84;69.09
56992;BME280;42885;49.754;18.636;2023-07-16T01:35:28;97916.80;;;27.73;70.07
56992;BME280;42885;49.754;18.636;2023-07-16T01:38:00;97923.22;;;27.72;70.50
56992;BME280;42885;49.754;18.636;2023-07-16T01:40:31;97921.71;;;27.60;71.03
56992;BME280;42885;49.754;18.636;2023-07-16T01:43:03;97918.31;;;27.56;71.70
56992;BME280;42885;49.754;18.636;2023-07-16T01:45:35;97919.97;;;27.50;71.93
56992;BME280;42885;49.754;18.636;2023-07-16T01:48:24;97911.91;;;27.57;71.98
56992;BME280;42885;49.754;18.636;2023-07-16T01:50:55;97912.81;;;27.53;72.02
56992;BME280;42885;49.754;18.636;2023-07-16T01:53:27;97912.00;;;27.59;71.71
56992;BME280;42885;49.754;18.636;2023-07-16T01:55:58;97914.80;;;27.48;72.40
56992;BME280;42885;49.754;18.636;2023-07-16T01:58:29;97906.30;;;27.52;71.68
56992;BME280;42885;49.754;18.636;2023-07-16T02:01:00;97903.73;;;27.47;72.30
56992;BME280;42885;49.754;18.636;2023-07-16T02:03:31;97901.86;;;27.55;71.64
56992;BME280;42885;49.754;18.636;2023-07-16T02:06:02;97899.41;;;27.46;72.04
56992;BME280;42885;49.754;18.636;2023-07-16T02:08:33;97898.67;;;27.55;71.58
56992;BME280;42885;49.754;18.636;2023-07-16T02:11:05;97893.16;;;27.66;70.85
56992;BME280;42885;49.754;18.636;2023-07-16T02:13:36;97900.34;;;27.56;71.34
56992;BME280;42885;49.754;18.636;2023-07-16T02:16:07;97891.91;;;27.69;70.79
56992;BME280;42885;49.754;18.636;2023-07-16T02:18:38;97898.23;;;27.65;70.72
56992;BME280;42885;49.754;18.636;2023-07-16T02:21:09;97901.86;;;27.61;70.96
56992;BME280;42885;49.754;18.636;2023-07-16T02:23:40;97901.86;;;27.55;71.35
56992;BME280;42885;49.754;18.636;2023-07-16T02:26:11;97909.31;;;27.53;71.61
56992;BME280;42885;49.754;18.636;2023-07-16T02:28:44;97907.44;;;27.60;71.35
56992;BME280;42885;49.754;18.636;2023-07-16T02:31:15;97898.56;;;27.53;71.72
56992;BME280;42885;49.754;18.636;2023-07-16T02:33:46;97897.13;;;27.50;71.90
56992;BME280;42885;49.754;18.636;2023-07-16T02:36:17;97902.83;;;27.44;72.40
56992;BME280;42885;49.754;18.636;2023-07-16T02:38:48;97901.99;;;27.44;72.22
56992;BME280;42885;49.754;18.636;2023-07-16T02:41:19;97908.11;;;27.42;72.45
56992;BME280;42885;49.754;18.636;2023-07-16T02:43:59;97899.94;;;27.39;72.46
56992;BME280;42885;49.754;18.636;2023-07-16T02:46:24;97892.48;;;27.41;72.29
56992;BME280;42885;49.754;18.636;2023-07-16T02:48:55;97901.52;;;27.31;73.12
56992;BME280;42885;49.754;18.636;2023-07-16T02:51:27;97896.75;;;27.33;72.92
56992;BME280;42885;49.754;18.636;2023-07-16T02:53:58;97901.41;;;27.28;73.27
56992;BME280;42885;49.754;18.636;2023-07-16T02:56:29;97905.03;;;27.25;73.80
56992;BME280;42885;49.754;18.636;2023-07-16T02:59:00;97907.31;;;27.21;73.60
56992;BME280;42885;49.754;18.636;2023-07-16T03:01:31;97907.94;;;27.16;73.71
56992;BME280;42885;49.754;18.636;2023-07-16T03:04:02;97900.47;;;27.32;73.40
56992;BME280;42885;49.754;18.636;2023-07-16T03:06:34;97904.09;;;27.28;72.81
56992;BME280;42885;49.754;18.636;2023-07-16T03:09:05;97908.33;;;27.27;73.45
56992;BME280;42885;49.754;18.636;2023-07-16T03:11:36;97905.41;;;27.35;72.06
56992;BME280;42885;49.754;18.636;2023-07-16T03:14:08;97906.98;;;27.33;72.24
56992;BME280;42885;49.754;18.636;2023-07-16T03:16:39;97909.14;;;27.34;72.21
56992;BME280;42885;49.754;18.636;2023-07-16T03:19:12;97925.48;;;27.26;72.98
56992;BME280;42885;49.754;18.636;2023-07-16T03:21:43;97921.76;;;27.27;72.82
56992;BME280;42885;49.754;18.636;2023-07-16T03:24:15;97919.84;;;27.11;73.70
56992;BME280;42885;49.754;18.636;2023-07-16T03:26:46;97921.47;;;27.19;73.94
56992;BME280;42885;49.754;18.636;2023-07-16T03:29:17;97922.94;;;27.15;74.66
56992;BME280;42885;49.754;18.636;2023-07-16T03:31:49;97931.72;;;27.06;74.54
56992;BME280;42885;49.754;18.636;2023-07-16T03:34:21;97945.75;;;27.21;73.90
56992;BME280;42885;49.754;18.636;2023-07-16T03:36:54;97947.01;;;27.12;73.73
56992;BME280;42885;49.754;18.636;2023-07-16T03:39:25;97944.42;;;27.01;75.46
56992;BME280;42885;49.754;18.636;2023-07-16T03:41:57;97952.91;;;26.98;75.14
56992;BME280;42885;49.754;18.636;2023-07-16T03:44:29;97952.28;;;27.03;75.56
56992;BME280;42885;49.754;18.636;2023-07-16T03:47:01;97960.02;;;26.95;75.69
56992;BME280;42885;49.754;18.636;2023-07-16T03:49:33;97955.37;;;27.13;74.66
56992;BME280;42885;49.754;18.636;2023-07-16T03:52:05;97957.66;;;27.03;75.03
56992;BME280;42885;49.754;18.636;2023-07-16T03:54:36;97963.84;;;26.97;76.18
56992;BME280;42885;49.754;18.636;2023-07-16T03:57:08;97975.88;;;26.83;77.56
56992;BME280;42885;49.754;18.636;2023-07-16T03:59:39;97961.04;;;27.01;75.31
56992;BME280;42885;49.754;18.636;2023-07-16T04:02:10;97971.39;;;27.04;76.78
56992;BME280;42885;49.754;18.636;2023-07-16T04:04:41;97972.00;;;27.06;75.57
56992;BME280;42885;49.754;18.636;2023-07-16T04:07:12;97981.49;;;26.95;76.57
56992;BME280;42885;49.754;18.636;2023-07-16T04:09:43;97977.77;;;26.96;76.53
56992;BME280;42885;49.754;18.636;2023-07-16T04:12:14;97990.78;;;26.92;76.82
56992;BME280;42885;49.754;18.636;2023-07-16T04:14:46;97994.89;;;26.88;78.53
56992;BME280;42885;49.754;18.636;2023-07-16T04:17:17;97996.45;;;26.93;77.49
56992;BME280;42885;49.754;18.636;2023-07-16T04:19:48;97994.89;;;26.88;78.19
56992;BME280;42885;49.754;18.636;2023-07-16T04:22:19;97996.45;;;26.93;77.51
56992;BME280;42885;49.754;18.636;2023-07-16T04:24:50;98004.42;;;27.04;77.41
56992;BME280;42885;49.754;18.636;2023-07-16T04:27:21;98004.10;;;27.10;76.67
56992;BME280;42885;49.754;18.636;2023-07-16T04:29:52;98007.01;;;27.15;74.88
56992;BME280;42885;49.754;18.636;2023-07-16T04:32:23;98007.10;;;27.25;75.01
56992;BME280;42885;49.754;18.636;2023-07-16T04:34:54;98016.81;;;27.26;74.83
56992;BME280;42885;49.754;18.636;2023-07-16T04:37:25;98019.73;;;27.24;74.99
56992;BME280;42885;49.754;18.636;2023-07-16T04:39:57;98017.44;;;27.34;74.29
56992;BME280;42885;49.754;18.636;2023-07-16T04:42:28;98025.92;;;27.11;78.35
56992;BME280;42885;49.754;18.636;2023-07-16T04:44:59;98027.15;;;27.35;75.87
56992;BME280;42885;49.754;18.636;2023-07-16T04:47:30;98035.41;;;27.34;75.44
56992;BME280;42885;49.754;18.636;2023-07-16T04:50:02;98031.68;;;27.48;75.10
56992;BME280;42885;49.754;18.636;2023-07-16T04:52:33;98034.47;;;27.51;75.31
56992;BME280;42885;49.754;18.636;2023-07-16T04:55:04;98037.71;;;27.57;74.27
56992;BME280;42885;49.754;18.636;2023-07-16T04:57:36;98041.80;;;27.73;73.76
56992;BME280;42885;49.754;18.636;2023-07-16T05:00:07;98041.38;;;27.76;73.82
56992;BME280;42885;49.754;18.636;2023-07-16T05:02:38;98046.25;;;27.77;73.19
56992;BME280;42885;49.754;18.636;2023-07-16T05:05:09;98051.13;;;27.64;74.43
56992;BME280;42885;49.754;18.636;2023-07-16T05:07:40;98050.25;;;27.84;73.95
56992;BME280;42885;49.754;18.636;2023-07-16T05:10:11;98052.52;;;27.94;73.51
56992;BME280;42885;49.754;18.636;2023-07-16T05:12:43;98052.72;;;27.92;73.51
56992;BME280;42885;49.754;18.636;2023-07-16T05:15:14;98056.52;;;28.00;73.07
56992;BME280;42885;49.754;18.636;2023-07-16T05:17:45;98050.44;;;28.02;72.57
56992;BME280;42885;49.754;18.636;2023-07-16T05:20:16;98054.03;;;28.06;72.10
56992;BME280;42885;49.754;18.636;2023-07-16T05:22:47;98040.15;;;28.09;71.45
56992;BME280;42885;49.754;18.636;2023-07-16T05:25:19;98045.58;;;28.32;70.98
56992;BME280;42885;49.754;18.636;2023-07-16T05:27:50;98048.53;;;28.46;70.63
56992;BME280;42885;49.754;18.636;2023-07-16T05:30:21;98045.04;;;28.39;70.73
56992;BME280;42885;49.754;18.636;2023-07-16T05:32:52;98048.22;;;28.45;71.35
56992;BME280;42885;49.754;18.636;2023-07-16T05:35:23;98042.73;;;28.65;68.97
56992;BME280;42885;49.754;18.636;2023-07-16T05:37:54;98043.89;;;28.76;69.37
56992;BME280;42885;49.754;18.636;2023-07-16T05:40:25;98046.77;;;28.81;70.06
56992;BME280;42885;49.754;18.636;2023-07-16T05:42:56;98049.46;;;28.81;70.29
56992;BME280;42885;49.754;18.636;2023-07-16T05:45:27;98047.50;;;28.86;70.22
56992;BME280;42885;49.754;18.636;2023-07-16T05:47:58;98043.91;;;29.08;67.84
56992;BME280;42885;49.754;18.636;2023-07-16T05:50:30;98051.30;;;29.20;65.79
56992;BME280;42885;49.754;18.636;2023-07-16T05:53:00;98057.31;;;29.31;66.03
56992;BME280;42885;49.754;18.636;2023-07-16T05:55:31;98062.53;;;29.26;65.89
56992;BME280;42885;49.754;18.636;2023-07-16T05:58:03;98066.91;;;29.52;64.51
56992;BME280;42885;49.754;18.636;2023-07-16T06:00:40;98068.36;;;29.64;64.56
56992;BME280;42885;49.754;18.636;2023-07-16T06:03:06;98069.86;;;29.60;65.24
56992;BME280;42885;49.754;18.636;2023-07-16T06:05:38;98073.17;;;29.72;64.13
56992;BME280;42885;49.754;18.636;2023-07-16T06:08:09;98072.27;;;29.69;63.36
56992;BME280;42885;49.754;18.636;2023-07-16T06:10:40;98061.63;;;29.83;63.33
56992;BME280;42885;49.754;18.636;2023-07-16T06:13:11;98068.09;;;30.01;61.81
56992;BME280;42885;49.754;18.636;2023-07-16T06:15:42;98061.05;;;29.90;63.97
56992;BME280;42885;49.754;18.636;2023-07-16T06:18:13;98057.30;;;30.01;61.61
56992;BME280;42885;49.754;18.636;2023-07-16T06:20:46;98056.78;;;29.92;61.85
56992;BME280;42885;49.754;18.636;2023-07-16T06:23:17;98056.95;;;29.97;61.11
56992;BME280;42885;49.754;18.636;2023-07-16T06:25:53;98062.81;;;30.22;61.93
56992;BME280;42885;49.754;18.636;2023-07-16T06:28:21;98072.11;;;30.17;61.10
56992;BME280;42885;49.754;18.636;2023-07-16T06:30:53;98073.67;;;30.15;60.86
56992;BME280;42885;49.754;18.636;2023-07-16T06:33:23;98077.70;;;30.34;60.34
56992;BME280;42885;49.754;18.636;2023-07-16T06:35:56;98079.97;;;30.28;60.66
56992;BME280;42885;49.754;18.636;2023-07-16T06:38:26;98080.65;;;31.03;58.20
56992;BME280;42885;49.754;18.636;2023-07-16T06:40:57;98084.75;;;30.44;61.58
56992;BME280;42885;49.754;18.636;2023-07-16T06:43:28;98084.72;;;30.63;58.31
56992;BME280;42885;49.754;18.636;2023-07-16T06:45:59;98098.08;;;30.67;57.64
56992;BME280;42885;49.754;18.636;2023-07-16T06:48:31;98098.08;;;30.67;57.64
56992;BME280;42885;49.754;18.636;2023-07-16T06:51:02;98095.37;;;30.67;58.34
56992;BME280;42885;49.754;18.636;2023-07-16T06:53:33;98113.47;;;30.97;59.64
56992;BME280;42885;49.754;18.636;2023-07-16T06:56:05;98116.58;;;31.13;56.45
56992;BME280;42885;49.754;18.636;2023-07-16T06:58:36;98124.70;;;31.34;56.72
56992;BME280;42885;49.754;18.636;2023-07-16T07:01:08;98133.73;;;31.18;56.01
56992;BME280;42885;49.754;18.636;2023-07-16T07:03:39;98143.89;;;31.14;54.91
56992;BME280;42885;49.754;18.636;2023-07-16T07:06:10;98146.51;;;31.42;55.92
56992;BME280;42885;49.754;18.636;2023-07-16T07:08:42;98155.75;;;31.43;56.21
56992;BME280;42885;49.754;18.636;2023-07-16T07:11:13;98165.75;;;31.76;53.99
56992;BME280;42885;49.754;18.636;2023-07-16T07:13:44;98172.73;;;31.75;51.75
56992;BME280;42885;49.754;18.636;2023-07-16T07:16:14;98172.14;;;31.94;49.77
56992;BME280;42885;49.754;18.636;2023-07-16T07:18:46;98173.23;;;31.95;50.70
56992;BME280;42885;49.754;18.636;2023-07-16T07:21:17;98182.34;;;32.27;51.74
56992;BME280;42885;49.754;18.636;2023-07-16T07:23:48;98189.52;;;32.58;49.14
56992;BME280;42885;49.754;18.636;2023-07-16T07:26:19;98189.06;;;32.49;46.31
56992;BME280;42885;49.754;18.636;2023-07-16T07:28:49;98193.09;;;32.61;46.10
56992;BME280;42885;49.754;18.636;2023-07-16T07:31:20;98191.88;;;32.54;46.78
56992;BME280;42885;49.754;18.636;2023-07-16T07:33:51;98195.52;;;32.60;46.94
56992;BME280;42885;49.754;18.636;2023-07-16T07:36:23;98203.19;;;32.77;44.73
56992;BME280;42885;49.754;18.636;2023-07-16T07:38:54;98192.20;;;32.70;44.33
56992;BME280;42885;49.754;18.636;2023-07-16T07:41:25;98197.88;;;32.82;44.10
56992;BME280;42885;49.754;18.636;2023-07-16T07:43:56;98200.94;;;32.86;44.65
56992;BME280;42885;49.754;18.636;2023-07-16T07:46:27;98209.27;;;32.70;46.26
56992;BME280;42885;49.754;18.636;2023-07-16T07:48:59;98201.22;;;32.87;45.68
56992;BME280;42885;49.754;18.636;2023-07-16T07:51:30;98207.27;;;33.04;44.84
56992;BME280;42885;49.754;18.636;2023-07-16T07:54:01;98209.45;;;33.04;46.40
56992;BME280;42885;49.754;18.636;2023-07-16T07:56:32;98210.41;;;32.98;48.24
56992;BME280;42885;49.754;18.636;2023-07-16T07:59:04;98213.53;;;32.92;47.53
56992;BME280;42885;49.754;18.636;2023-07-16T08:01:36;98211.34;;;32.65;48.16
56992;BME280;42885;49.754;18.636;2023-07-16T08:04:07;98209.93;;;32.89;47.89
56992;BME280;42885;49.754;18.636;2023-07-16T08:06:39;98214.52;;;32.74;49.74
56992;BME280;42885;49.754;18.636;2023-07-16T08:09:11;98197.50;;;32.91;50.02
56992;BME280;42885;49.754;18.636;2023-07-16T08:11:42;98198.62;;;32.92;50.00
56992;BME280;42885;49.754;18.636;2023-07-16T08:14:13;98195.83;;;33.31;49.48
56992;BME280;42885;49.754;18.636;2023-07-16T08:16:44;98195.25;;;33.29;47.62
56992;BME280;42885;49.754;18.636;2023-07-16T08:19:15;98194.68;;;33.27;47.14
56992;BME280;42885;49.754;18.636;2023-07-16T08:21:45;98197.84;;;33.67;46.29
56992;BME280;42885;49.754;18.636;2023-07-16T08:24:17;98202.55;;;33.74;46.01
56992;BME280;42885;49.754;18.636;2023-07-16T08:26:47;98200.92;;;33.56;45.81
56992;BME280;42885;49.754;18.636;2023-07-16T08:29:18;98199.80;;;33.55;45.56
56992;BME280;42885;49.754;18.636;2023-07-16T08:31:50;98202.20;;;33.68;49.03
56992;BME280;42885;49.754;18.636;2023-07-16T08:34:21;98200.95;;;33.76;48.58
56992;BME280;42885;49.754;18.636;2023-07-16T08:36:52;98207.36;;;34.01;45.30
56992;BME280;42885;49.754;18.636;2023-07-16T08:39:22;98203.44;;;34.12;45.92
56992;BME280;42885;49.754;18.636;2023-07-16T08:41:53;98202.83;;;34.27;45.71
56992;BME280;42885;49.754;18.636;2023-07-16T08:44:25;98199.47;;;33.85;46.11
56992;BME280;42885;49.754;18.636;2023-07-16T08:46:57;98198.94;;;33.69;46.58
56992;BME280;42885;49.754;18.636;2023-07-16T08:49:29;98197.25;;;33.65;46.31
56992;BME280;42885;49.754;18.636;2023-07-16T08:52:02;98205.70;;;33.22;48.62
56992;BME280;42885;49.754;18.636;2023-07-16T08:54:32;98200.49;;;33.04;50.03
56992;BME280;42885;49.754;18.636;2023-07-16T08:57:03;98198.11;;;32.81;48.98
56992;BME280;42885;49.754;18.636;2023-07-16T08:59:36;98194.11;;;33.10;49.26
56992;BME280;42885;49.754;18.636;2023-07-16T09:02:07;98204.27;;;33.03;50.79
56992;BME280;42885;49.754;18.636;2023-07-16T09:04:38;98204.63;;;33.67;48.37
56992;BME280;42885;49.754;18.636;2023-07-16T09:07:09;98207.14;;;33.88;47.27
56992;BME280;42885;49.754;18.636;2023-07-16T09:09:40;98199.95;;;33.99;47.17
56992;BME280;42885;49.754;18.636;2023-07-16T09:12:12;98202.23;;;33.88;47.51
56992;BME280;42885;49.754;18.636;2023-07-16T09:14:43;98206.95;;;34.10;48.69
56992;BME280;42885;49.754;18.636;2023-07-16T09:17:23;98201.52;;;33.78;47.44
56992;BME280;42885;49.754;18.636;2023-07-16T09:19:55;98206.09;;;33.43;51.19
56992;BME280;42885;49.754;18.636;2023-07-16T09:22:26;98205.45;;;34.19;48.79
56992;BME280;42885;49.754;18.636;2023-07-16T09:24:57;98204.22;;;33.75;49.89
56992;BME280;42885;49.754;18.636;2023-07-16T09:27:31;98200.75;;;33.63;49.33
56992;BME280;42885;49.754;18.636;2023-07-16T09:30:04;98201.00;;;33.78;48.57
56992;BME280;42885;49.754;18.636;2023-07-16T09:32:39;98201.31;;;34.34;47.47
56992;BME280;42885;49.754;18.636;2023-07-16T09:35:16;98205.62;;;34.12;48.62
56992;BME280;42885;49.754;18.636;2023-07-16T09:37:46;98202.66;;;33.97;52.33
56992;BME280;42885;49.754;18.636;2023-07-16T09:40:17;98200.92;;;33.56;51.92
56992;BME280;42885;49.754;18.636;2023-07-16T09:42:48;98212.19;;;34.16;50.53
56992;BME280;42885;49.754;18.636;2023-07-16T09:45:21;98214.45;;;33.71;52.69
56992;BME280;42885;49.754;18.636;2023-07-16T09:47:52;98214.61;;;33.49;53.96
56992;BME280;42885;49.754;18.636;2023-07-16T09:50:24;98215.20;;;33.37;53.99
56992;BME280;42885;49.754;18.636;2023-07-16T09:52:57;98210.95;;;33.73;53.35
56992;BME280;42885;49.754;18.636;2023-07-16T09:55:30;98214.57;;;33.78;53.16
56992;BME280;42885;49.754;18.636;2023-07-16T09:58:06;98215.22;;;33.52;54.94
56992;BME280;42885;49.754;18.636;2023-07-16T10:00:36;98219.94;;;33.30;55.12
56992;BME280;42885;49.754;18.636;2023-07-16T10:03:08;98226.64;;;33.10;55.21
56992;BME280;42885;49.754;18.636;2023-07-16T10:05:39;98223.63;;;32.94;55.46
56992;BME280;42885;49.754;18.636;2023-07-16T10:08:18;98231.45;;;33.08;55.84
56992;BME280;42885;49.754;18.636;2023-07-16T10:10:54;98234.03;;;33.00;56.12
56992;BME280;42885;49.754;18.636;2023-07-16T10:13:27;98233.16;;;33.12;55.65
56992;BME280;42885;49.754;18.636;2023-07-16T10:15:59;98220.04;;;33.49;54.67
56992;BME280;42885;49.754;18.636;2023-07-16T10:18:31;98219.26;;;34.54;51.97
56992;BME280;42885;49.754;18.636;2023-07-16T10:21:06;98222.12;;;34.87;51.03
56992;BME280;42885;49.754;18.636;2023-07-16T10:23:41;98217.00;;;35.16;49.21
56992;BME280;42885;49.754;18.636;2023-07-16T10:26:14;98223.03;;;34.95;52.42
56992;BME280;42885;49.754;18.636;2023-07-16T10:28:47;98228.02;;;34.59;50.29
56992;BME280;42885;49.754;18.636;2023-07-16T10:31:29;98224.05;;;35.11;51.61
56992;BME280;42885;49.754;18.636;2023-07-16T10:34:04;98220.31;;;35.48;49.96
56992;BME280;42885;49.754;18.636;2023-07-16T10:36:44;98220.34;;;35.23;49.59
56992;BME280;42885;49.754;18.636;2023-07-16T10:39:11;98219.71;;;35.68;47.47
56992;BME280;42885;49.754;18.636;2023-07-16T10:41:47;98225.91;;;35.61;45.93
56992;BME280;42885;49.754;18.636;2023-07-16T10:44:19;98225.77;;;34.98;49.19
56992;BME280;42885;49.754;18.636;2023-07-16T10:46:50;98225.37;;;35.61;48.08
56992;BME280;42885;49.754;18.636;2023-07-16T10:49:27;98223.54;;;36.45;46.95
56992;BME280;42885;49.754;18.636;2023-07-16T10:52:02;98217.63;;;35.50;46.59
56992;BME280;42885;49.754;18.636;2023-07-16T10:54:34;98218.16;;;35.75;46.27
56992;BME280;42885;49.754;18.636;2023-07-16T10:57:05;98214.84;;;34.93;48.56
56992;BME280;42885;49.754;18.636;2023-07-16T10:59:38;98214.11;;;34.55;49.13
56992;BME280;42885;49.754;18.636;2023-07-16T11:02:14;98204.63;;;34.38;51.54
56992;BME280;42885;49.754;18.636;2023-07-16T11:04:46;98208.02;;;34.28;53.79
56992;BME280;42885;49.754;18.636;2023-07-16T11:07:17;98215.38;;;34.30;53.70
56992;BME280;42885;49.754;18.636;2023-07-16T11:09:53;98206.34;;;34.25;53.58
56992;BME280;42885;49.754;18.636;2023-07-16T11:12:24;98209.16;;;34.13;52.97
56992;BME280;42885;49.754;18.636;2023-07-16T11:14:56;98211.13;;;34.00;52.67
56992;BME280;42885;49.754;18.636;2023-07-16T11:17:27;98212.43;;;34.15;52.35
56992;BME280;42885;49.754;18.636;2023-07-16T11:20:00;98219.63;;;33.89;52.15
56992;BME280;42885;49.754;18.636;2023-07-16T11:22:37;98217.30;;;34.13;51.00
56992;BME280;42885;49.754;18.636;2023-07-16T11:25:12;98217.42;;;34.21;51.11
56992;BME280;42885;49.754;18.636;2023-07-16T11:27:43;98224.38;;;33.65;56.92
56992;BME280;42885;49.754;18.636;2023-07-16T11:30:14;98219.50;;;33.99;51.97
56992;BME280;42885;49.754;18.636;2023-07-16T11:32:47;98220.27;;;34.51;49.31
56992;BME280;42885;49.754;18.636;2023-07-16T11:35:20;98221.43;;;35.22;50.33
56992;BME280;42885;49.754;18.636;2023-07-16T11:37:51;98220.49;;;34.89;51.95
56992;BME280;42885;49.754;18.636;2023-07-16T11:40:22;98220.66;;;34.57;55.21
56992;BME280;42885;49.754;18.636;2023-07-16T11:42:53;98215.98;;;34.35;55.88
56992;BME280;42885;49.754;18.636;2023-07-16T11:45:25;98218.10;;;34.50;57.26
56992;BME280;42885;49.754;18.636;2023-07-16T11:47:57;98218.17;;;34.75;55.61
56992;BME280;42885;49.754;18.636;2023-07-16T11:50:30;98222.05;;;35.29;54.23
56992;BME280;42885;49.754;18.636;2023-07-16T11:53:01;98212.00;;;35.90;51.10
56992;BME280;42885;49.754;18.636;2023-07-16T11:55:32;98206.58;;;35.92;51.98
56992;BME280;42885;49.754;18.636;2023-07-16T11:58:03;98206.05;;;36.92;48.30
56992;BME280;42885;49.754;18.636;2023-07-16T12:00:34;98204.73;;;37.05;44.23
56992;BME280;42885;49.754;18.636;2023-07-16T12:03:05;98199.90;;;37.28;43.58
56992;BME280;42885;49.754;18.636;2023-07-16T12:05:36;98203.24;;;36.66;45.24
56992;BME280;42885;49.754;18.636;2023-07-16T12:08:09;98204.55;;;37.45;44.49
56992;BME280;42885;49.754;18.636;2023-07-16T12:10:41;98199.84;;;37.15;44.22
56992;BME280;42885;49.754;18.636;2023-07-16T12:13:12;98211.22;;;36.94;43.88
56992;BME280;42885;49.754;18.636;2023-07-16T12:15:43;98212.16;;;37.23;42.92
56992;BME280;42885;49.754;18.636;2023-07-16T12:18:14;98210.23;;;37.18;42.30
56992;BME280;42885;49.754;18.636;2023-07-16T12:20:45;98205.16;;;36.73;44.30
56992;BME280;42885;49.754;18.636;2023-07-16T12:23:16;98201.80;;;37.30;42.63
56992;BME280;42885;49.754;18.636;2023-07-16T12:25:48;98208.78;;;36.97;42.53
56992;BME280;42885;49.754;18.636;2023-07-16T12:28:19;98199.06;;;37.19;42.16
56992;BME280;42885;49.754;18.636;2023-07-16T12:30:51;98206.55;;;36.78;43.00
56992;BME280;42885;49.754;18.636;2023-07-16T12:33:22;98198.39;;;36.84;44.38
56992;BME280;42885;49.754;18.636;2023-07-16T12:35:53;98195.17;;;36.39;44.70
56992;BME280;42885;49.754;18.636;2023-07-16T12:38:23;98192.09;;;35.84;46.01
56992;BME280;42885;49.754;18.636;2023-07-16T12:40:54;98194.69;;;35.41;46.47
56992;BME280;42885;49.754;18.636;2023-07-16T12:43:25;98189.78;;;35.40;48.23
56992;BME280;42885;49.754;18.636;2023-07-16T12:45:56;98186.11;;;35.54;49.01
56992;BME280;42885;49.754;18.636;2023-07-16T12:48:28;98178.59;;;37.35;47.31
56992;BME280;42885;49.754;18.636;2023-07-16T12:50:58;98180.00;;;37.79;43.01
56992;BME280;42885;49.754;18.636;2023-07-16T12:53:29;98177.89;;;39.61;41.50
56992;BME280;42885;49.754;18.636;2023-07-16T12:56:00;98172.52;;;38.50;42.50
56992;BME280;42885;49.754;18.636;2023-07-16T12:58:31;98179.16;;;38.89;44.09
56992;BME280;42885;49.754;18.636;2023-07-16T13:01:03;98178.24;;;39.12;38.94
56992;BME280;42885;49.754;18.636;2023-07-16T13:03:34;98180.53;;;38.89;40.59
56992;BME280;42885;49.754;18.636;2023-07-16T13:06:05;98186.09;;;38.68;40.16
56992;BME280;42885;49.754;18.636;2023-07-16T13:08:36;98184.47;;;39.95;39.61
56992;BME280;42885;49.754;18.636;2023-07-16T13:11:07;98179.48;;;39.67;38.34
56992;BME280;42885;49.754;18.636;2023-07-16T13:13:38;98179.33;;;38.45;39.36
56992;BME280;42885;49.754;18.636;2023-07-16T13:16:09;98178.11;;;38.82;40.96